sensor_id;sensor_type;location;lat;lon;timestamp;P1;durP1;ratioP1;P2;durP2;ratioP2
46355;SDS011;32066;49.474;11.106;2024-03-17T00:02:23;4.57;;;1.70;;
46355;SDS011;32066;49.474;11.106;2024-03-17T00:04:52;5.63;;;1.85;;
46355;SDS011;32066;49.474;11.106;2024-03-17T00:07:21;4.45;;;1.50;;
46355;SDS011;32066;49.474;11.106;2024-03-17T00:09:49;4.60;;;1.85;;
46355;SDS011;32066;49.474;11.106;2024-03-17T00:12:15;4.75;;;1.70;;
46355;SDS011;32066;49.474;11.106;2024-03-17T00:14:44;5.03;;;1.75;;
46355;SDS011;32066;49.474;11.106;2024-03-17T00:17:10;5.05;;;1.60;;
46355;SDS011;32066;49.474;11.106;2024-03-17T00:19:40;5.03;;;1.58;;
46355;SDS011;32066;49.474;11.106;2024-03-17T00:22:06;5.35;;;1.55;;
46355;SDS011;32066;49.474;11.106;2024-03-17T00:24:41;6.70;;;1.90;;
46355;SDS011;32066;49.474;11.106;2024-03-17T00:27:08;4.57;;;1.73;;
46355;SDS011;32066;49.474;11.106;2024-03-17T00:29:38;4.95;;;1.85;;
46355;SDS011;32066;49.474;11.106;2024-03-17T00:32:05;5.72;;;2.10;;
46355;SDS011;32066;49.474;11.106;2024-03-17T00:34:36;8.00;;;2.13;;
46355;SDS011;32066;49.474;11.106;2024-03-17T00:37:02;7.47;;;2.15;;
46355;SDS011;32066;49.474;11.106;2024-03-17T00:39:31;5.13;;;2.00;;
46355;SDS011;32066;49.474;11.106;2024-03-17T00:42:00;6.18;;;2.45;;
46355;SDS011;32066;49.474;11.106;2024-03-17T00:44:29;5.07;;;2.22;;
46355;SDS011;32066;49.474;11.106;2024-03-17T00:46:55;8.63;;;2.10;;
46355;SDS011;32066;49.474;11.106;2024-03-17T00:49:23;6.53;;;2.20;;
46355;SDS011;32066;49.474;11.106;2024-03-17T00:51:49;5.88;;;2.15;;
46355;SDS011;32066;49.474;11.106;2024-03-17T00:54:18;6.18;;;2.50;;
46355;SDS011;32066;49.474;11.106;2024-03-17T00:56:44;5.22;;;2.08;;
46355;SDS011;32066;49.474;11.106;2024-03-17T00:59:15;4.47;;;1.90;;
46355;SDS011;32066;49.474;11.106;2024-03-17T01:01:41;8.40;;;2.03;;
46355;SDS011;32066;49.474;11.106;2024-03-17T01:04:11;5.25;;;2.20;;
46355;SDS011;32066;49.474;11.106;2024-03-17T01:06:37;5.68;;;2.30;;
46355;SDS011;32066;49.474;11.106;2024-03-17T01:09:06;5.32;;;2.30;;
46355;SDS011;32066;49.474;11.106;2024-03-17T01:11:33;5.95;;;2.00;;
46355;SDS011;32066;49.474;11.106;2024-03-17T01:14:02;4.65;;;2.10;;
46355;SDS011;32066;49.474;11.106;2024-03-17T01:16:30;6.03;;;2.28;;
46355;SDS011;32066;49.474;11.106;2024-03-17T01:18:59;5.32;;;2.05;;
46355;SDS011;32066;49.474;11.106;2024-03-17T01:21:25;4.88;;;2.00;;
46355;SDS011;32066;49.474;11.106;2024-03-17T01:23:53;6.18;;;2.20;;
46355;SDS011;32066;49.474;11.106;2024-03-17T01:26:19;5.22;;;2.20;;
46355;SDS011;32066;49.474;11.106;2024-03-17T01:28:49;6.55;;;2.60;;
46355;SDS011;32066;49.474;11.106;2024-03-17T01:31:15;6.28;;;2.72;;
46355;SDS011;32066;49.474;11.106;2024-03-17T01:33:47;4.95;;;2.58;;
46355;SDS011;32066;49.474;11.106;2024-03-17T01:36:13;6.85;;;2.60;;
46355;SDS011;32066;49.474;11.106;2024-03-17T01:38:42;8.50;;;2.50;;
46355;SDS011;32066;49.474;11.106;2024-03-17T01:41:08;8.43;;;3.08;;
46355;SDS011;32066;49.474;11.106;2024-03-17T01:43:38;7.53;;;3.50;;
46355;SDS011;32066;49.474;11.106;2024-03-17T01:46:04;6.60;;;3.03;;
46355;SDS011;32066;49.474;11.106;2024-03-17T01:48:33;8.40;;;2.83;;
46355;SDS011;32066;49.474;11.106;2024-03-17T01:51:01;6.90;;;2.65;;
46355;SDS011;32066;49.474;11.106;2024-03-17T01:53:30;5.75;;;2.55;;
46355;SDS011;32066;49.474;11.106;2024-03-17T01:55:57;6.47;;;2.85;;
46355;SDS011;32066;49.474;11.106;2024-03-17T01:58:27;5.20;;;2.42;;
46355;SDS011;32066;49.474;11.106;2024-03-17T02:00:55;6.50;;;3.00;;
46355;SDS011;32066;49.474;11.106;2024-03-17T02:03:24;5.75;;;2.47;;
46355;SDS011;32066;49.474;11.106;2024-03-17T02:05:50;5.50;;;2.30;;
46355;SDS011;32066;49.474;11.106;2024-03-17T02:08:21;7.30;;;2.40;;
46355;SDS011;32066;49.474;11.106;2024-03-17T02:10:51;4.75;;;2.15;;
46355;SDS011;32066;49.474;11.106;2024-03-17T02:13:21;6.03;;;2.50;;
46355;SDS011;32066;49.474;11.106;2024-03-17T02:15:47;6.70;;;3.00;;
46355;SDS011;32066;49.474;11.106;2024-03-17T02:18:16;5.80;;;2.33;;
46355;SDS011;32066;49.474;11.106;2024-03-17T02:20:42;6.30;;;2.00;;
46355;SDS011;32066;49.474;11.106;2024-03-17T02:23:29;5.45;;;2.33;;
46355;SDS011;32066;49.474;11.106;2024-03-17T02:25:55;5.45;;;2.22;;
46355;SDS011;32066;49.474;11.106;2024-03-17T02:28:24;5.72;;;2.20;;
46355;SDS011;32066;49.474;11.106;2024-03-17T02:30:52;4.97;;;2.13;;
46355;SDS011;32066;49.474;11.106;2024-03-17T02:33:18;4.88;;;1.90;;
46355;SDS011;32066;49.474;11.106;2024-03-17T02:35:48;4.60;;;1.92;;
46355;SDS011;32066;49.474;11.106;2024-03-17T02:38:15;6.25;;;1.90;;
46355;SDS011;32066;49.474;11.106;2024-03-17T02:41:07;4.32;;;1.73;;
46355;SDS011;32066;49.474;11.106;2024-03-17T02:43:34;6.47;;;1.90;;
46355;SDS011;32066;49.474;11.106;2024-03-17T02:46:02;4.55;;;2.00;;
46355;SDS011;32066;49.474;11.106;2024-03-17T02:48:33;5.70;;;2.22;;
46355;SDS011;32066;49.474;11.106;2024-03-17T02:53:40;5.65;;;2.53;;
46355;SDS011;32066;49.474;11.106;2024-03-17T02:56:12;5.22;;;2.42;;
46355;SDS011;32066;49.474;11.106;2024-03-17T02:58:43;5.50;;;2.72;;
46355;SDS011;32066;49.474;11.106;2024-03-17T03:01:12;6.72;;;3.00;;
46355;SDS011;32066;49.474;11.106;2024-03-17T03:03:41;7.32;;;2.88;;
46355;SDS011;32066;49.474;11.106;2024-03-17T03:06:10;5.72;;;2.70;;
46355;SDS011;32066;49.474;11.106;2024-03-17T03:08:39;5.18;;;2.42;;
46355;SDS011;32066;49.474;11.106;2024-03-17T03:11:09;5.90;;;2.33;;
46355;SDS011;32066;49.474;11.106;2024-03-17T03:13:41;5.47;;;2.30;;
46355;SDS011;32066;49.474;11.106;2024-03-17T03:16:11;4.63;;;2.10;;
46355;SDS011;32066;49.474;11.106;2024-03-17T03:18:42;5.15;;;2.03;;
46355;SDS011;32066;49.474;11.106;2024-03-17T03:21:11;4.85;;;2.17;;
46355;SDS011;32066;49.474;11.106;2024-03-17T03:23:40;4.72;;;2.05;;
46355;SDS011;32066;49.474;11.106;2024-03-17T03:26:09;3.67;;;1.60;;
46355;SDS011;32066;49.474;11.106;2024-03-17T03:28:40;4.20;;;1.85;;
46355;SDS011;32066;49.474;11.106;2024-03-17T03:31:10;4.20;;;2.10;;
46355;SDS011;32066;49.474;11.106;2024-03-17T03:33:40;6.35;;;2.00;;
46355;SDS011;32066;49.474;11.106;2024-03-17T03:36:07;4.43;;;2.00;;
46355;SDS011;32066;49.474;11.106;2024-03-17T03:38:36;4.10;;;2.05;;
46355;SDS011;32066;49.474;11.106;2024-03-17T03:41:06;4.68;;;2.00;;
46355;SDS011;32066;49.474;11.106;2024-03-17T03:43:35;4.82;;;2.20;;
46355;SDS011;32066;49.474;11.106;2024-03-17T03:46:07;5.10;;;2.15;;
46355;SDS011;32066;49.474;11.106;2024-03-17T03:48:36;5.45;;;2.35;;
46355;SDS011;32066;49.474;11.106;2024-03-17T03:51:04;5.05;;;2.67;;
46355;SDS011;32066;49.474;11.106;2024-03-17T03:53:35;6.80;;;2.58;;
46355;SDS011;32066;49.474;11.106;2024-03-17T03:56:05;4.00;;;2.03;;
46355;SDS011;32066;49.474;11.106;2024-03-17T03:58:35;5.88;;;2.40;;
46355;SDS011;32066;49.474;11.106;2024-03-17T04:01:08;5.00;;;2.30;;
46355;SDS011;32066;49.474;11.106;2024-03-17T04:03:37;4.35;;;2.13;;
46355;SDS011;32066;49.474;11.106;2024-03-17T04:06:07;4.97;;;2.13;;
46355;SDS011;32066;49.474;11.106;2024-03-17T04:08:37;4.78;;;2.47;;
46355;SDS011;32066;49.474;11.106;2024-03-17T04:11:06;5.10;;;2.60;;
46355;SDS011;32066;49.474;11.106;2024-03-17T04:13:36;6.63;;;2.70;;
46355;SDS011;32066;49.474;11.106;2024-03-17T04:16:09;5.70;;;2.60;;
46355;SDS011;32066;49.474;11.106;2024-03-17T04:18:40;4.90;;;2.42;;
46355;SDS011;32066;49.474;11.106;2024-03-17T04:21:09;7.72;;;2.90;;
46355;SDS011;32066;49.474;11.106;2024-03-17T04:23:37;7.03;;;2.95;;
46355;SDS011;32066;49.474;11.106;2024-03-17T04:26:06;5.10;;;2.53;;
46355;SDS011;32066;49.474;11.106;2024-03-17T04:28:35;4.97;;;2.92;;
46355;SDS011;32066;49.474;11.106;2024-03-17T04:31:04;5.03;;;2.92;;
46355;SDS011;32066;49.474;11.106;2024-03-17T04:33:35;5.63;;;2.50;;
46355;SDS011;32066;49.474;11.106;2024-03-17T04:36:06;6.38;;;3.47;;
46355;SDS011;32066;49.474;11.106;2024-03-17T04:38:35;5.65;;;2.90;;
46355;SDS011;32066;49.474;11.106;2024-03-17T04:41:04;5.20;;;3.20;;
46355;SDS011;32066;49.474;11.106;2024-03-17T04:43:34;5.07;;;3.08;;
46355;SDS011;32066;49.474;11.106;2024-03-17T04:46:04;6.40;;;3.00;;
46355;SDS011;32066;49.474;11.106;2024-03-17T04:48:39;6.93;;;3.05;;
46355;SDS011;32066;49.474;11.106;2024-03-17T04:51:08;5.15;;;3.00;;
46355;SDS011;32066;49.474;11.106;2024-03-17T04:53:42;5.78;;;3.22;;
46355;SDS011;32066;49.474;11.106;2024-03-17T04:56:11;6.55;;;3.40;;
46355;SDS011;32066;49.474;11.106;2024-03-17T04:58:39;5.80;;;3.38;;
46355;SDS011;32066;49.474;11.106;2024-03-17T05:01:09;6.90;;;3.75;;
46355;SDS011;32066;49.474;11.106;2024-03-17T05:03:40;5.32;;;3.38;;
46355;SDS011;32066;49.474;11.106;2024-03-17T05:06:09;5.10;;;3.08;;
46355;SDS011;32066;49.474;11.106;2024-03-17T05:08:38;6.63;;;3.08;;
46355;SDS011;32066;49.474;11.106;2024-03-17T05:11:06;6.22;;;3.60;;
46355;SDS011;32066;49.474;11.106;2024-03-17T05:13:35;5.97;;;2.97;;
46355;SDS011;32066;49.474;11.106;2024-03-17T05:16:04;5.65;;;3.15;;
46355;SDS011;32066;49.474;11.106;2024-03-17T05:18:33;6.93;;;3.30;;
46355;SDS011;32066;49.474;11.106;2024-03-17T05:21:07;7.05;;;2.80;;
46355;SDS011;32066;49.474;11.106;2024-03-17T05:23:36;6.95;;;2.80;;
46355;SDS011;32066;49.474;11.106;2024-03-17T05:26:05;4.35;;;2.58;;
46355;SDS011;32066;49.474;11.106;2024-03-17T05:28:34;6.80;;;2.88;;
46355;SDS011;32066;49.474;11.106;2024-03-17T05:31:02;7.25;;;2.65;;
46355;SDS011;32066;49.474;11.106;2024-03-17T05:33:31;7.38;;;2.60;;
46355;SDS011;32066;49.474;11.106;2024-03-17T05:36:01;6.05;;;3.00;;
46355;SDS011;32066;49.474;11.106;2024-03-17T05:38:34;6.80;;;2.80;;
46355;SDS011;32066;49.474;11.106;2024-03-17T05:41:03;4.55;;;2.53;;
46355;SDS011;32066;49.474;11.106;2024-03-17T05:43:33;4.65;;;2.65;;
46355;SDS011;32066;49.474;11.106;2024-03-17T05:46:03;5.93;;;3.10;;
46355;SDS011;32066;49.474;11.106;2024-03-17T05:48:34;5.32;;;3.00;;
46355;SDS011;32066;49.474;11.106;2024-03-17T05:51:04;4.88;;;2.85;;
46355;SDS011;32066;49.474;11.106;2024-03-17T05:53:35;5.32;;;3.03;;
46355;SDS011;32066;49.474;11.106;2024-03-17T05:56:05;5.95;;;2.90;;
46355;SDS011;32066;49.474;11.106;2024-03-17T05:58:36;6.05;;;2.92;;
46355;SDS011;32066;49.474;11.106;2024-03-17T06:01:05;6.75;;;3.03;;
46355;SDS011;32066;49.474;11.106;2024-03-17T06:03:36;5.75;;;2.97;;
46355;SDS011;32066;49.474;11.106;2024-03-17T06:06:05;5.78;;;3.08;;
46355;SDS011;32066;49.474;11.106;2024-03-17T06:08:38;5.28;;;3.00;;
46355;SDS011;32066;49.474;11.106;2024-03-17T06:11:07;4.72;;;2.83;;
46355;SDS011;32066;49.474;11.106;2024-03-17T06:13:36;5.78;;;3.20;;
46355;SDS011;32066;49.474;11.106;2024-03-17T06:16:04;7.35;;;3.58;;
46355;SDS011;32066;49.474;11.106;2024-03-17T06:18:33;5.32;;;3.28;;
46355;SDS011;32066;49.474;11.106;2024-03-17T06:21:04;7.35;;;3.38;;
46355;SDS011;32066;49.474;11.106;2024-03-17T06:23:34;6.15;;;3.33;;
46355;SDS011;32066;49.474;11.106;2024-03-17T06:26:05;5.03;;;3.00;;
46355;SDS011;32066;49.474;11.106;2024-03-17T06:28:34;4.90;;;2.90;;
46355;SDS011;32066;49.474;11.106;2024-03-17T06:31:03;6.57;;;3.33;;
46355;SDS011;32066;49.474;11.106;2024-03-17T06:33:35;6.00;;;3.28;;
46355;SDS011;32066;49.474;11.106;2024-03-17T06:36:04;5.80;;;3.20;;
46355;SDS011;32066;49.474;11.106;2024-03-17T06:38:33;5.53;;;3.45;;
46355;SDS011;32066;49.474;11.106;2024-03-17T06:41:02;6.22;;;3.70;;
46355;SDS011;32066;49.474;11.106;2024-03-17T06:43:34;6.88;;;3.30;;
46355;SDS011;32066;49.474;11.106;2024-03-17T06:46:04;5.78;;;3.30;;
46355;SDS011;32066;49.474;11.106;2024-03-17T06:48:33;7.03;;;3.28;;
46355;SDS011;32066;49.474;11.106;2024-03-17T06:51:01;8.20;;;3.58;;
46355;SDS011;32066;49.474;11.106;2024-03-17T06:53:30;6.22;;;3.15;;
46355;SDS011;32066;49.474;11.106;2024-03-17T06:55:59;6.95;;;3.70;;
46355;SDS011;32066;49.474;11.106;2024-03-17T06:58:28;7.20;;;3.67;;
46355;SDS011;32066;49.474;11.106;2024-03-17T07:01:00;8.07;;;4.03;;
46355;SDS011;32066;49.474;11.106;2024-03-17T07:03:30;7.35;;;4.00;;
46355;SDS011;32066;49.474;11.106;2024-03-17T07:05:59;6.80;;;3.67;;
46355;SDS011;32066;49.474;11.106;2024-03-17T07:08:30;7.72;;;3.88;;
46355;SDS011;32066;49.474;11.106;2024-03-17T07:11:00;9.20;;;4.20;;
46355;SDS011;32066;49.474;11.106;2024-03-17T07:13:30;6.43;;;3.60;;
46355;SDS011;32066;49.474;11.106;2024-03-17T07:16:03;7.38;;;3.47;;
46355;SDS011;32066;49.474;11.106;2024-03-17T07:18:34;6.43;;;3.50;;
46355;SDS011;32066;49.474;11.106;2024-03-17T07:21:04;6.47;;;3.97;;
46355;SDS011;32066;49.474;11.106;2024-03-17T07:23:35;6.50;;;3.42;;
46355;SDS011;32066;49.474;11.106;2024-03-17T07:26:04;7.88;;;3.95;;
46355;SDS011;32066;49.474;11.106;2024-03-17T07:28:34;7.75;;;4.00;;
46355;SDS011;32066;49.474;11.106;2024-03-17T07:31:08;8.10;;;4.07;;
46355;SDS011;32066;49.474;11.106;2024-03-17T07:33:37;6.70;;;4.07;;
46355;SDS011;32066;49.474;11.106;2024-03-17T07:36:06;7.30;;;4.15;;
46355;SDS011;32066;49.474;11.106;2024-03-17T07:38:36;6.03;;;3.90;;
46355;SDS011;32066;49.474;11.106;2024-03-17T07:41:05;8.57;;;3.92;;
46355;SDS011;32066;49.474;11.106;2024-03-17T07:43:35;6.78;;;3.75;;
46355;SDS011;32066;49.474;11.106;2024-03-17T07:46:08;7.20;;;4.20;;
46355;SDS011;32066;49.474;11.106;2024-03-17T07:48:39;6.50;;;4.07;;
46355;SDS011;32066;49.474;11.106;2024-03-17T07:51:09;6.88;;;3.95;;
46355;SDS011;32066;49.474;11.106;2024-03-17T07:53:39;5.75;;;3.55;;
46355;SDS011;32066;49.474;11.106;2024-03-17T07:56:10;7.38;;;3.60;;
46355;SDS011;32066;49.474;11.106;2024-03-17T07:58:40;7.85;;;3.72;;
46355;SDS011;32066;49.474;11.106;2024-03-17T08:01:13;5.97;;;3.40;;
46355;SDS011;32066;49.474;11.106;2024-03-17T08:03:44;7.05;;;3.85;;
46355;SDS011;32066;49.474;11.106;2024-03-17T08:06:14;7.30;;;4.03;;
46355;SDS011;32066;49.474;11.106;2024-03-17T08:08:43;6.80;;;3.83;;
46355;SDS011;32066;49.474;11.106;2024-03-17T08:11:12;6.13;;;3.63;;
46355;SDS011;32066;49.474;11.106;2024-03-17T08:13:40;5.90;;;3.78;;
46355;SDS011;32066;49.474;11.106;2024-03-17T08:16:09;7.47;;;4.18;;
46355;SDS011;32066;49.474;11.106;2024-03-17T08:18:41;6.88;;;3.95;;
46355;SDS011;32066;49.474;11.106;2024-03-17T08:21:10;7.60;;;4.18;;
46355;SDS011;32066;49.474;11.106;2024-03-17T08:23:39;11.98;;;6.55;;
46355;SDS011;32066;49.474;11.106;2024-03-17T08:26:08;14.48;;;6.85;;
46355;SDS011;32066;49.474;11.106;2024-03-17T08:28:37;11.43;;;6.10;;
46355;SDS011;32066;49.474;11.106;2024-03-17T08:31:05;11.70;;;5.95;;
46355;SDS011;32066;49.474;11.106;2024-03-17T08:33:34;10.20;;;5.93;;
46355;SDS011;32066;49.474;11.106;2024-03-17T08:36:06;9.20;;;5.35;;
46355;SDS011;32066;49.474;11.106;2024-03-17T08:38:36;8.75;;;4.80;;
46355;SDS011;32066;49.474;11.106;2024-03-17T08:41:06;8.30;;;4.70;;
46355;SDS011;32066;49.474;11.106;2024-03-17T08:43:36;10.05;;;4.38;;
46355;SDS011;32066;49.474;11.106;2024-03-17T08:46:06;6.85;;;3.83;;
46355;SDS011;32066;49.474;11.106;2024-03-17T08:48:39;7.43;;;3.75;;
46355;SDS011;32066;49.474;11.106;2024-03-17T08:51:11;7.47;;;4.00;;
46355;SDS011;32066;49.474;11.106;2024-03-17T08:53:40;6.72;;;3.33;;
46355;SDS011;32066;49.474;11.106;2024-03-17T08:56:08;5.47;;;3.15;;
46355;SDS011;32066;49.474;11.106;2024-03-17T08:58:38;4.70;;;3.00;;
46355;SDS011;32066;49.474;11.106;2024-03-17T09:01:07;5.55;;;2.67;;
46355;SDS011;32066;49.474;11.106;2024-03-17T09:03:36;4.75;;;2.50;;
46355;SDS011;32066;49.474;11.106;2024-03-17T09:06:10;6.38;;;2.90;;
46355;SDS011;32066;49.474;11.106;2024-03-17T09:08:44;6.15;;;2.67;;
46355;SDS011;32066;49.474;11.106;2024-03-17T09:11:13;5.43;;;2.70;;
46355;SDS011;32066;49.474;11.106;2024-03-17T09:13:42;5.63;;;2.50;;
46355;SDS011;32066;49.474;11.106;2024-03-17T09:16:11;5.45;;;2.22;;
46355;SDS011;32066;49.474;11.106;2024-03-17T09:18:38;4.60;;;2.00;;
46355;SDS011;32066;49.474;11.106;2024-03-17T09:21:07;4.90;;;2.03;;
46355;SDS011;32066;49.474;11.106;2024-03-17T09:23:39;5.05;;;1.90;;
46355;SDS011;32066;49.474;11.106;2024-03-17T09:26:08;3.88;;;1.58;;
46355;SDS011;32066;49.474;11.106;2024-03-17T09:28:39;4.03;;;1.70;;
46355;SDS011;32066;49.474;11.106;2024-03-17T09:31:09;3.90;;;1.85;;
46355;SDS011;32066;49.474;11.106;2024-03-17T09:33:39;4.85;;;2.00;;
46355;SDS011;32066;49.474;11.106;2024-03-17T09:36:08;4.35;;;1.80;;
46355;SDS011;32066;49.474;11.106;2024-03-17T09:38:41;4.25;;;1.80;;
46355;SDS011;32066;49.474;11.106;2024-03-17T09:41:16;4.28;;;2.17;;
46355;SDS011;32066;49.474;11.106;2024-03-17T09:43:50;5.60;;;2.20;;
46355;SDS011;32066;49.474;11.106;2024-03-17T09:46:21;5.10;;;2.10;;
46355;SDS011;32066;49.474;11.106;2024-03-17T09:48:51;4.72;;;2.22;;
46355;SDS011;32066;49.474;11.106;2024-03-17T09:51:20;5.13;;;2.20;;
46355;SDS011;32066;49.474;11.106;2024-03-17T09:53:53;8.60;;;2.38;;
46355;SDS011;32066;49.474;11.106;2024-03-17T09:56:21;6.20;;;2.20;;
46355;SDS011;32066;49.474;11.106;2024-03-17T09:58:51;4.95;;;2.10;;
46355;SDS011;32066;49.474;11.106;2024-03-17T10:01:20;5.38;;;2.45;;
46355;SDS011;32066;49.474;11.106;2024-03-17T10:03:50;4.43;;;2.20;;
46355;SDS011;32066;49.474;11.106;2024-03-17T10:06:20;33.25;;;5.18;;
46355;SDS011;32066;49.474;11.106;2024-03-17T10:08:50;6.25;;;2.90;;
46355;SDS011;32066;49.474;11.106;2024-03-17T10:11:23;6.80;;;3.70;;
46355;SDS011;32066;49.474;11.106;2024-03-17T10:13:59;7.95;;;4.43;;
46355;SDS011;32066;49.474;11.106;2024-03-17T10:16:29;7.50;;;4.00;;
46355;SDS011;32066;49.474;11.106;2024-03-17T10:19:05;6.55;;;3.90;;
46355;SDS011;32066;49.474;11.106;2024-03-17T10:21:35;8.23;;;3.92;;
46355;SDS011;32066;49.474;11.106;2024-03-17T10:24:08;6.60;;;3.58;;
46355;SDS011;32066;49.474;11.106;2024-03-17T10:26:40;5.63;;;3.55;;
46355;SDS011;32066;49.474;11.106;2024-03-17T10:29:21;7.28;;;3.90;;
46355;SDS011;32066;49.474;11.106;2024-03-17T10:31:51;8.43;;;4.28;;
46355;SDS011;32066;49.474;11.106;2024-03-17T10:34:21;8.07;;;4.40;;
46355;SDS011;32066;49.474;11.106;2024-03-17T10:37:02;8.18;;;4.63;;
46355;SDS011;32066;49.474;11.106;2024-03-17T10:39:38;7.95;;;4.22;;
46355;SDS011;32066;49.474;11.106;2024-03-17T10:42:09;7.40;;;3.58;;
46355;SDS011;32066;49.474;11.106;2024-03-17T10:44:39;6.50;;;3.47;;
46355;SDS011;32066;49.474;11.106;2024-03-17T10:47:13;9.25;;;3.50;;
46355;SDS011;32066;49.474;11.106;2024-03-17T10:49:49;8.63;;;4.55;;
46355;SDS011;32066;49.474;11.106;2024-03-17T10:52:20;7.88;;;4.53;;
46355;SDS011;32066;49.474;11.106;2024-03-17T10:54:54;8.07;;;4.97;;
46355;SDS011;32066;49.474;11.106;2024-03-17T10:57:24;8.02;;;5.00;;
46355;SDS011;32066;49.474;11.106;2024-03-17T10:59:59;6.63;;;4.28;;
46355;SDS011;32066;49.474;11.106;2024-03-17T11:02:29;6.85;;;4.30;;
46355;SDS011;32066;49.474;11.106;2024-03-17T11:05:01;6.95;;;4.25;;
46355;SDS011;32066;49.474;11.106;2024-03-17T11:07:31;8.10;;;4.88;;
46355;SDS011;32066;49.474;11.106;2024-03-17T11:10:05;7.32;;;4.57;;
46355;SDS011;32066;49.474;11.106;2024-03-17T11:12:39;10.55;;;4.50;;
46355;SDS011;32066;49.474;11.106;2024-03-17T11:21:00;7.07;;;4.22;;
46355;SDS011;32066;49.474;11.106;2024-03-17T11:23:33;8.10;;;4.82;;
46355;SDS011;32066;49.474;11.106;2024-03-17T11:26:06;7.60;;;4.45;;
46355;SDS011;32066;49.474;11.106;2024-03-17T11:28:45;7.93;;;5.22;;
46355;SDS011;32066;49.474;11.106;2024-03-17T11:34:01;7.93;;;4.78;;
46355;SDS011;32066;49.474;11.106;2024-03-17T11:36:36;9.38;;;5.00;;
46355;SDS011;32066;49.474;11.106;2024-03-17T11:39:06;7.15;;;4.55;;
46355;SDS011;32066;49.474;11.106;2024-03-17T11:41:43;7.88;;;5.20;;
46355;SDS011;32066;49.474;11.106;2024-03-17T11:44:16;8.15;;;4.60;;
46355;SDS011;32066;49.474;11.106;2024-03-17T11:46:50;8.13;;;4.65;;
46355;SDS011;32066;49.474;11.106;2024-03-17T11:49:20;7.72;;;4.68;;
46355;SDS011;32066;49.474;11.106;2024-03-17T11:51:48;8.80;;;5.63;;
46355;SDS011;32066;49.474;11.106;2024-03-17T11:54:18;7.80;;;5.05;;
46355;SDS011;32066;49.474;11.106;2024-03-17T11:56:48;7.68;;;5.15;;
46355;SDS011;32066;49.474;11.106;2024-03-17T11:59:18;8.88;;;4.88;;
46355;SDS011;32066;49.474;11.106;2024-03-17T12:01:45;9.45;;;5.95;;
46355;SDS011;32066;49.474;11.106;2024-03-17T12:04:15;9.48;;;5.70;;
46355;SDS011;32066;49.474;11.106;2024-03-17T12:06:44;8.55;;;5.57;;
46355;SDS011;32066;49.474;11.106;2024-03-17T12:09:17;8.93;;;5.45;;
46355;SDS011;32066;49.474;11.106;2024-03-17T12:11:58;15.00;;;5.70;;
46355;SDS011;32066;49.474;11.106;2024-03-17T12:14:29;9.23;;;5.68;;
46355;SDS011;32066;49.474;11.106;2024-03-17T12:16:56;9.82;;;6.50;;
46355;SDS011;32066;49.474;11.106;2024-03-17T12:19:26;10.50;;;6.05;;
46355;SDS011;32066;49.474;11.106;2024-03-17T12:21:54;10.02;;;5.82;;
46355;SDS011;32066;49.474;11.106;2024-03-17T12:24:25;9.75;;;5.88;;
46355;SDS011;32066;49.474;11.106;2024-03-17T12:26:55;9.55;;;6.00;;
46355;SDS011;32066;49.474;11.106;2024-03-17T12:29:25;10.32;;;5.70;;
46355;SDS011;32066;49.474;11.106;2024-03-17T12:31:55;10.00;;;6.15;;
46355;SDS011;32066;49.474;11.106;2024-03-17T12:34:25;9.35;;;6.10;;
46355;SDS011;32066;49.474;11.106;2024-03-17T12:36:53;9.65;;;6.32;;
46355;SDS011;32066;49.474;11.106;2024-03-17T12:39:23;9.50;;;6.30;;
46355;SDS011;32066;49.474;11.106;2024-03-17T12:42:06;13.85;;;6.47;;
46355;SDS011;32066;49.474;11.106;2024-03-17T12:44:36;12.60;;;5.55;;
46355;SDS011;32066;49.474;11.106;2024-03-17T12:47:07;8.20;;;5.53;;
46355;SDS011;32066;49.474;11.106;2024-03-17T12:49:48;11.15;;;6.18;;
46355;SDS011;32066;49.474;11.106;2024-03-17T12:52:18;9.55;;;5.60;;
46355;SDS011;32066;49.474;11.106;2024-03-17T12:54:57;10.15;;;5.88;;
46355;SDS011;32066;49.474;11.106;2024-03-17T12:57:40;9.73;;;5.82;;
46355;SDS011;32066;49.474;11.106;2024-03-17T13:00:22;7.72;;;5.50;;
46355;SDS011;32066;49.474;11.106;2024-03-17T13:03:00;9.32;;;5.25;;
46355;SDS011;32066;49.474;11.106;2024-03-17T13:05:30;9.55;;;6.38;;
46355;SDS011;32066;49.474;11.106;2024-03-17T13:07:59;9.73;;;6.05;;
46355;SDS011;32066;49.474;11.106;2024-03-17T13:10:28;8.45;;;5.00;;
46355;SDS011;32066;49.474;11.106;2024-03-17T13:13:01;8.70;;;5.13;;
46355;SDS011;32066;49.474;11.106;2024-03-17T13:15:32;10.45;;;6.40;;
46355;SDS011;32066;49.474;11.106;2024-03-17T13:18:03;10.10;;;5.55;;
46355;SDS011;32066;49.474;11.106;2024-03-17T13:20:32;8.40;;;5.78;;
46355;SDS011;32066;49.474;11.106;2024-03-17T13:23:02;8.35;;;5.80;;
46355;SDS011;32066;49.474;11.106;2024-03-17T13:25:30;9.07;;;6.03;;
46355;SDS011;32066;49.474;11.106;2024-03-17T13:28:04;12.00;;;5.68;;
46355;SDS011;32066;49.474;11.106;2024-03-17T13:30:33;9.20;;;5.60;;
46355;SDS011;32066;49.474;11.106;2024-03-17T13:33:02;7.78;;;5.68;;
46355;SDS011;32066;49.474;11.106;2024-03-17T13:35:34;9.70;;;5.85;;
46355;SDS011;32066;49.474;11.106;2024-03-17T13:38:04;9.23;;;5.25;;
46355;SDS011;32066;49.474;11.106;2024-03-17T13:40:35;11.20;;;5.05;;
46355;SDS011;32066;49.474;11.106;2024-03-17T13:43:10;10.70;;;5.60;;
46355;SDS011;32066;49.474;11.106;2024-03-17T13:45:39;7.88;;;5.10;;
46355;SDS011;32066;49.474;11.106;2024-03-17T13:48:10;12.95;;;5.60;;
46355;SDS011;32066;49.474;11.106;2024-03-17T13:50:39;8.15;;;4.97;;
46355;SDS011;32066;49.474;11.106;2024-03-17T13:53:09;8.68;;;5.40;;
46355;SDS011;32066;49.474;11.106;2024-03-17T13:55:38;9.18;;;5.93;;
46355;SDS011;32066;49.474;11.106;2024-03-17T13:58:10;9.05;;;5.32;;
46355;SDS011;32066;49.474;11.106;2024-03-17T14:00:38;10.02;;;6.15;;
46355;SDS011;32066;49.474;11.106;2024-03-17T14:03:08;8.43;;;5.68;;
46355;SDS011;32066;49.474;11.106;2024-03-17T14:05:37;10.63;;;6.10;;
46355;SDS011;32066;49.474;11.106;2024-03-17T14:08:06;9.38;;;5.20;;
46355;SDS011;32066;49.474;11.106;2024-03-17T14:10:35;7.53;;;5.22;;
46355;SDS011;32066;49.474;11.106;2024-03-17T14:13:04;8.50;;;5.00;;
46355;SDS011;32066;49.474;11.106;2024-03-17T14:15:36;9.70;;;5.47;;
46355;SDS011;32066;49.474;11.106;2024-03-17T14:18:05;10.68;;;6.10;;
46355;SDS011;32066;49.474;11.106;2024-03-17T14:20:33;8.25;;;5.40;;
46355;SDS011;32066;49.474;11.106;2024-03-17T14:23:02;8.02;;;5.20;;
46355;SDS011;32066;49.474;11.106;2024-03-17T14:25:31;10.98;;;5.72;;
46355;SDS011;32066;49.474;11.106;2024-03-17T14:28:00;10.07;;;6.13;;
46355;SDS011;32066;49.474;11.106;2024-03-17T14:30:29;9.77;;;6.43;;
46355;SDS011;32066;49.474;11.106;2024-03-17T14:33:01;9.52;;;6.20;;
46355;SDS011;32066;49.474;11.106;2024-03-17T14:35:32;8.30;;;5.47;;
46355;SDS011;32066;49.474;11.106;2024-03-17T14:38:01;10.90;;;6.07;;
46355;SDS011;32066;49.474;11.106;2024-03-17T14:40:30;8.10;;;5.68;;
46355;SDS011;32066;49.474;11.106;2024-03-17T14:42:59;9.05;;;5.50;;
46355;SDS011;32066;49.474;11.106;2024-03-17T14:45:28;9.63;;;5.93;;
46355;SDS011;32066;49.474;11.106;2024-03-17T14:47:57;9.48;;;5.78;;
46355;SDS011;32066;49.474;11.106;2024-03-17T14:50:28;10.43;;;5.95;;
46355;SDS011;32066;49.474;11.106;2024-03-17T14:52:57;10.80;;;5.70;;
46355;SDS011;32066;49.474;11.106;2024-03-17T14:55:26;8.70;;;5.78;;
46355;SDS011;32066;49.474;11.106;2024-03-17T14:57:54;8.95;;;5.35;;
46355;SDS011;32066;49.474;11.106;2024-03-17T15:00:23;13.68;;;5.80;;
46355;SDS011;32066;49.474;11.106;2024-03-17T15:02:52;8.30;;;5.57;;